createdAt,value
2019-02-17T00:00:06.253Z,47.57
2019-02-17T00:03:13.589Z,47.81
2019-02-17T00:06:19.352Z,47.88
2019-02-17T00:09:25.118Z,48.03
2019-02-17T00:12:30.896Z,48.45
2019-02-17T00:15:36.688Z,48.59
2019-02-17T00:18:42.494Z,48.51
2019-02-17T00:21:48.282Z,48.18
2019-02-17T00:24:54.137Z,48.21
2019-02-17T00:27:59.906Z,48.36
2019-02-17T00:31:05.784Z,48.36
2019-02-17T00:34:13.670Z,48.02
2019-02-17T00:37:19.062Z,48.08
2019-02-17T00:40:24.850Z,48.20
2019-02-17T00:43:30.632Z,48.54
2019-02-17T00:46:36.419Z,48.51
2019-02-17T00:49:42.226Z,48.22
2019-02-17T00:52:47.978Z,48.96
2019-02-17T00:55:53.752Z,49.03
2019-02-17T00:59:09.358Z,48.57
2019-02-17T01:02:07.047Z,48.41
2019-02-17T01:05:12.966Z,48.22
2019-02-17T01:08:18.727Z,48.18
2019-02-17T01:11:24.527Z,48.89
2019-02-17T01:14:30.385Z,48.49
2019-02-17T01:17:36.408Z,48.68
2019-02-17T01:20:42.293Z,48.72
2019-02-17T01:23:48.062Z,48.42
2019-02-17T01:26:53.837Z,48.59
2019-02-17T01:29:59.617Z,50.77
2019-02-17T01:33:05.442Z,49.92
2019-02-17T01:36:11.231Z,49.37
2019-02-17T01:39:16.992Z,48.80
2019-02-17T01:42:22.870Z,48.54
2019-02-17T01:45:28.703Z,48.59
2019-02-17T01:48:34.467Z,48.27
2019-02-17T01:51:40.272Z,48.29
2019-02-17T01:54:46.041Z,48.49
2019-02-17T01:57:51.822Z,48.39
2019-02-17T02:00:57.886Z,48.47
2019-02-17T02:04:03.985Z,48.38
2019-02-17T02:07:09.781Z,48.46
2019-02-17T02:10:15.635Z,49.86
2019-02-17T02:13:21.429Z,50.18
2019-02-17T02:16:27.207Z,49.31
2019-02-17T02:19:32.981Z,48.86
2019-02-17T02:22:38.863Z,48.81
2019-02-17T02:25:44.688Z,48.32
2019-02-17T02:28:50.501Z,48.83
2019-02-17T02:31:56.272Z,48.43
2019-02-17T02:35:02.077Z,48.10
2019-02-17T02:38:07.963Z,48.73
2019-02-17T02:41:13.735Z,48.12
2019-02-17T02:44:19.529Z,47.94
2019-02-17T02:47:25.317Z,48.13
2019-02-17T02:50:31.145Z,48.02
2019-02-17T02:53:36.903Z,48.22
2019-02-17T02:56:42.721Z,49.09
2019-02-17T02:59:52.311Z,51.11
2019-02-17T03:02:56.064Z,51.32
2019-02-17T03:06:20.704Z,51.81
2019-02-17T03:09:26.559Z,50.75
2019-02-17T03:12:32.388Z,49.94
2019-02-17T03:15:38.105Z,49.55
2019-02-17T03:18:43.915Z,49.41
2019-02-17T03:21:49.690Z,48.70
2019-02-17T03:24:56.559Z,48.62
2019-02-17T03:28:02.314Z,49.03
2019-02-17T03:31:08.136Z,48.61
2019-02-17T03:34:13.928Z,49.01
2019-02-17T03:37:19.809Z,50.89
2019-02-17T03:40:25.580Z,50.46
2019-02-17T03:43:31.403Z,50.01
2019-02-17T03:46:37.189Z,50.49
2019-02-17T03:49:42.987Z,49.65
2019-02-17T03:52:48.737Z,49.27
2019-02-17T03:55:54.568Z,49.00
2019-02-17T03:59:00.352Z,49.39
2019-02-17T04:02:06.243Z,49.64
2019-02-17T04:05:12.018Z,51.02
2019-02-17T04:08:18.061Z,50.58
2019-02-17T04:11:23.841Z,51.08
2019-02-17T04:14:29.739Z,51.78
2019-02-17T04:17:35.506Z,50.60
2019-02-17T04:20:41.293Z,51.95
2019-02-17T04:23:48.073Z,53.12
2019-02-17T04:26:53.897Z,51.78
2019-02-17T04:29:59.662Z,52.28
2019-02-17T04:33:05.486Z,52.27
2019-02-17T04:36:11.276Z,52.04
2019-02-17T04:39:17.074Z,52.19
2019-02-17T04:42:22.825Z,51.15
2019-02-17T04:45:28.726Z,51.86
2019-02-17T04:48:34.476Z,52.66
2019-02-17T04:51:40.377Z,52.87
2019-02-17T04:54:46.294Z,52.56
2019-02-17T04:57:52.053Z,52.37
2019-02-17T05:00:57.827Z,52.00
2019-02-17T05:04:03.817Z,50.97
2019-02-17T05:07:09.594Z,50.22
2019-02-17T05:10:15.414Z,49.95
2019-02-17T05:13:21.205Z,50.22
2019-02-17T05:16:27.025Z,50.88
2019-02-17T05:19:32.908Z,51.20
2019-02-17T05:22:39.548Z,52.75
2019-02-17T05:25:45.457Z,51.48
2019-02-17T05:28:51.244Z,51.77
2019-02-17T05:31:57.179Z,52.46
2019-02-17T05:35:02.948Z,53.77
2019-02-17T05:38:09.845Z,52.73
2019-02-17T05:41:15.659Z,51.86
2019-02-17T05:44:21.472Z,51.92
2019-02-17T05:47:27.293Z,50.73
2019-02-17T05:50:33.038Z,50.30
2019-02-17T05:53:38.861Z,50.16
2019-02-17T05:56:44.629Z,49.73
2019-02-17T05:59:50.505Z,49.77
2019-02-17T06:02:56.276Z,49.62
2019-02-17T06:06:02.074Z,49.13
2019-02-17T06:09:07.877Z,49.27
2019-02-17T06:12:13.709Z,49.39
2019-02-17T06:15:19.590Z,49.23
2019-02-17T06:18:25.366Z,48.82
2019-02-17T06:21:31.109Z,48.80
2019-02-17T06:24:36.910Z,48.42
2019-02-17T06:27:42.713Z,47.87
2019-02-17T06:30:48.493Z,47.13
2019-02-17T06:33:54.279Z,46.81
2019-02-17T06:37:00.080Z,46.56
2019-02-17T06:40:06.206Z,46.55
2019-02-17T06:43:12.021Z,45.69
2019-02-17T06:46:21.734Z,45.93
2019-02-17T06:49:27.556Z,45.68
2019-02-17T06:52:33.369Z,44.60
2019-02-17T06:55:53.492Z,44.65
2019-02-17T06:58:59.304Z,43.47
2019-02-17T07:02:05.255Z,43.44
2019-02-17T07:05:35.789Z,44.28
2019-02-17T07:08:41.742Z,43.11
2019-02-17T07:11:47.575Z,43.34
2019-02-17T07:14:53.426Z,42.88
2019-02-17T07:17:59.348Z,42.37
2019-02-17T07:21:05.388Z,41.77
2019-02-17T07:24:11.198Z,41.04
2019-02-17T07:27:16.965Z,41.01
2019-02-17T07:30:22.750Z,40.86
2019-02-17T07:33:28.584Z,40.62
2019-02-17T07:36:34.387Z,40.17
2019-02-17T07:39:40.223Z,39.70
2019-02-17T07:42:46.022Z,39.49
2019-02-17T07:45:54.263Z,38.34
2019-02-17T07:49:00.046Z,37.93
2019-02-17T07:52:05.931Z,38.19
2019-02-17T07:55:11.921Z,38.10
2019-02-17T07:58:17.684Z,37.44
2019-02-17T08:01:23.517Z,39.93
2019-02-17T08:04:29.300Z,39.13
2019-02-17T08:07:35.158Z,38.64
2019-02-17T08:10:40.996Z,37.15
2019-02-17T08:13:46.829Z,37.49
2019-02-17T08:16:52.607Z,38.00
2019-02-17T08:19:58.371Z,38.69
2019-02-17T08:23:04.188Z,37.80
2019-02-17T08:26:09.992Z,37.45
2019-02-17T08:29:15.967Z,37.72
2019-02-17T08:32:21.746Z,36.84
2019-02-17T08:35:27.677Z,36.44
2019-02-17T08:38:36.352Z,36.76
2019-02-17T08:41:42.288Z,36.76
2019-02-17T08:44:49.292Z,36.50
2019-02-17T08:47:55.150Z,36.37
2019-02-17T08:51:00.930Z,35.66
2019-02-17T08:54:06.711Z,35.71
2019-02-17T08:57:12.502Z,35.13
2019-02-17T09:00:18.355Z,34.83
2019-02-17T09:03:24.134Z,35.17
2019-02-17T09:06:29.945Z,34.57
2019-02-17T09:09:35.754Z,34.10
2019-02-17T09:12:41.552Z,33.61
2019-02-17T09:15:47.368Z,35.41
2019-02-17T09:18:53.238Z,33.89
2019-02-17T09:21:59.048Z,33.37
2019-02-17T09:25:05.635Z,33.59
2019-02-17T09:28:11.478Z,33.91
2019-02-17T09:31:17.344Z,33.60
2019-02-17T09:34:23.251Z,33.35
2019-02-17T09:37:29.089Z,33.83
2019-02-17T09:40:34.851Z,34.01
2019-02-17T09:43:40.641Z,33.54
2019-02-17T09:46:46.432Z,33.17
2019-02-17T09:49:52.274Z,33.49
2019-02-17T09:52:58.069Z,32.93
2019-02-17T09:56:04.094Z,33.38
2019-02-17T09:59:09.886Z,32.81
2019-02-17T10:02:15.695Z,32.97
2019-02-17T10:05:21.477Z,32.18
2019-02-17T10:08:28.295Z,32.61
2019-02-17T10:11:34.226Z,33.70
2019-02-17T10:14:40.034Z,34.52
2019-02-17T10:17:45.875Z,33.58
2019-02-17T10:20:51.876Z,32.98
2019-02-17T10:23:57.992Z,32.51
2019-02-17T10:27:04.042Z,32.36
2019-02-17T10:30:11.797Z,31.18
2019-02-17T10:33:17.765Z,29.71
2019-02-17T10:36:23.562Z,29.25
2019-02-17T10:39:29.502Z,29.97
2019-02-17T10:42:35.289Z,29.41
2019-02-17T10:45:42.085Z,28.12
2019-02-17T10:48:47.918Z,27.62
2019-02-17T10:51:53.762Z,27.62
2019-02-17T10:54:59.528Z,27.11
2019-02-17T10:58:05.413Z,29.37
2019-02-17T11:01:11.312Z,29.37
2019-02-17T11:04:17.100Z,27.22
2019-02-17T11:07:22.903Z,27.10
2019-02-17T11:10:28.701Z,26.50
2019-02-17T11:13:34.547Z,25.84
2019-02-17T11:16:40.483Z,24.83
2019-02-17T11:19:46.313Z,24.36
2019-02-17T11:22:52.158Z,24.35
2019-02-17T11:25:57.946Z,23.43
2019-02-17T11:29:04.979Z,23.37
2019-02-17T11:32:10.911Z,23.37
2019-02-17T11:35:17.055Z,23.68
2019-02-17T11:38:22.837Z,23.68
2019-02-17T11:41:28.768Z,24.11
2019-02-17T11:44:34.580Z,23.90
2019-02-17T11:47:40.374Z,24.22
2019-02-17T11:50:46.143Z,23.89
2019-02-17T11:53:51.995Z,24.11
2019-02-17T11:56:57.899Z,23.83
2019-02-17T12:00:03.823Z,23.45
2019-02-17T12:03:09.891Z,23.82
2019-02-17T12:06:15.772Z,23.19
2019-02-17T12:09:21.601Z,23.18
2019-02-17T12:12:27.447Z,23.18
2019-02-17T12:15:33.255Z,22.80
2019-02-17T12:18:41.453Z,22.69
2019-02-17T12:22:11.938Z,23.10
2019-02-17T12:25:24.730Z,22.85
2019-02-17T12:29:01.454Z,23.21
2019-02-17T12:32:07.569Z,23.49
2019-02-17T12:35:14.609Z,23.64
2019-02-17T12:38:20.528Z,23.60
2019-02-17T12:41:26.294Z,23.59
2019-02-17T12:44:32.069Z,24.20
2019-02-17T12:47:38.134Z,23.51
2019-02-17T12:50:43.988Z,23.29
2019-02-17T12:53:49.774Z,22.91
2019-02-17T12:56:55.528Z,23.70
2019-02-17T13:00:01.438Z,23.44
2019-02-17T13:03:07.675Z,23.22
2019-02-17T13:06:16.045Z,23.47
2019-02-17T13:09:21.869Z,22.58
2019-02-17T13:12:27.634Z,23.34
2019-02-17T13:15:33.702Z,23.03
2019-02-17T13:18:42.542Z,23.17
2019-02-17T13:21:50.095Z,22.65
2019-02-17T13:24:55.855Z,22.42
2019-02-17T13:28:01.810Z,23.14
2019-02-17T13:31:07.669Z,22.77
2019-02-17T13:34:13.450Z,23.20
2019-02-17T13:37:19.469Z,23.56
2019-02-17T13:40:25.380Z,23.39
2019-02-17T13:43:31.108Z,23.36
2019-02-17T13:46:36.915Z,23.32
2019-02-17T13:49:42.809Z,23.84
2019-02-17T13:52:48.597Z,23.89
2019-02-17T13:55:54.478Z,23.40
2019-02-17T13:59:00.231Z,23.19
2019-02-17T14:02:06.443Z,22.73
2019-02-17T14:05:15.705Z,23.29
2019-02-17T14:08:21.497Z,23.35
2019-02-17T14:11:27.532Z,22.95
2019-02-17T14:14:33.358Z,23.09
2019-02-17T14:17:39.228Z,23.09
2019-02-17T14:20:45.015Z,23.28
2019-02-17T14:23:50.883Z,23.28
2019-02-17T14:26:58.386Z,23.32
2019-02-17T14:30:09.042Z,22.95
2019-02-17T14:33:14.436Z,22.95
2019-02-17T14:36:20.425Z,22.98
2019-02-17T14:39:29.264Z,22.83
2019-02-17T14:42:35.157Z,23.05
2019-02-17T14:45:40.953Z,22.97
2019-02-17T14:48:46.770Z,23.25
2019-02-17T14:51:52.610Z,23.07
2019-02-17T14:54:58.439Z,23.48
2019-02-17T14:58:05.626Z,23.48
2019-02-17T15:01:11.649Z,23.65
2019-02-17T15:04:17.754Z,23.92
2019-02-17T15:07:23.618Z,24.03
2019-02-17T15:10:29.674Z,24.20
2019-02-17T15:13:35.632Z,24.80
2019-02-17T15:16:42.316Z,24.67
2019-02-17T15:19:48.264Z,25.48
2019-02-17T15:22:54.097Z,26.02
2019-02-17T15:26:03.106Z,26.65
2019-02-17T15:29:10.162Z,27.23
2019-02-17T15:32:17.886Z,27.67
2019-02-17T15:35:24.515Z,28.27
2019-02-17T15:38:31.057Z,28.79
2019-02-17T15:41:37.427Z,29.54
2019-02-17T15:44:43.223Z,29.74
2019-02-17T15:47:49.120Z,29.83
2019-02-17T15:51:05.938Z,29.98
2019-02-17T15:54:02.587Z,30.20
2019-02-17T15:57:08.722Z,30.61
2019-02-17T16:00:15.020Z,31.00
2019-02-17T16:03:20.993Z,31.14
2019-02-17T16:06:26.832Z,31.33
2019-02-17T16:09:35.931Z,31.82
2019-02-17T16:12:43.178Z,32.24
2019-02-17T16:15:49.010Z,32.08
2019-02-17T16:18:57.483Z,32.70
2019-02-17T16:22:04.986Z,32.95
2019-02-17T16:25:17.064Z,33.19
2019-02-17T16:28:22.903Z,33.40
2019-02-17T16:31:28.718Z,34.05
2019-02-17T16:34:38.417Z,34.12
2019-02-17T16:37:42.493Z,34.45
2019-02-17T16:40:48.411Z,34.90
2019-02-17T16:43:54.344Z,34.78
2019-02-17T16:47:00.287Z,34.84
2019-02-17T16:50:07.809Z,34.52
2019-02-17T16:53:13.623Z,34.65
2019-02-17T16:56:20.813Z,34.84
2019-02-17T16:59:26.721Z,35.11
2019-02-17T17:02:32.705Z,35.24
2019-02-17T17:05:39.746Z,36.02
2019-02-17T17:08:45.868Z,36.14
2019-02-17T17:11:51.939Z,36.27
2019-02-17T17:14:57.939Z,36.43
2019-02-17T17:18:04.026Z,37.23
2019-02-17T17:21:09.841Z,37.11
2019-02-17T17:24:15.976Z,36.80
2019-02-17T17:27:21.940Z,37.10
2019-02-17T17:30:27.781Z,37.04
2019-02-17T17:33:33.583Z,37.10
2019-02-17T17:36:41.389Z,37.69
2019-02-17T17:39:47.190Z,37.76
2019-02-17T17:42:55.762Z,37.73
2019-02-17T17:46:01.696Z,37.68
2019-02-17T17:49:07.751Z,38.16
2019-02-17T17:52:13.615Z,38.14
2019-02-17T17:55:19.449Z,38.32
2019-02-17T17:58:25.276Z,38.69
2019-02-17T18:01:31.545Z,39.04
2019-02-17T18:04:37.459Z,39.47
2019-02-17T18:07:43.468Z,39.72
2019-02-17T18:10:49.352Z,40.12
2019-02-17T18:13:55.286Z,40.38
2019-02-17T18:17:01.071Z,40.43
2019-02-17T18:20:07.993Z,40.33
2019-02-17T18:23:16.127Z,40.20
2019-02-17T18:26:25.562Z,40.17
2019-02-17T18:29:32.714Z,40.24
2019-02-17T18:32:39.346Z,40.85
2019-02-17T18:35:46.944Z,40.92
2019-02-17T18:38:54.280Z,41.06
2019-02-17T18:42:00.139Z,41.55
2019-02-17T18:45:06.236Z,41.22
2019-02-17T18:48:12.032Z,41.36
2019-02-17T18:51:17.940Z,41.17
2019-02-17T18:54:23.937Z,41.27
2019-02-17T18:57:29.778Z,41.78
2019-02-17T19:00:35.732Z,41.74
2019-02-17T19:03:41.702Z,41.72
2019-02-17T19:06:47.998Z,41.67
2019-02-17T19:09:53.906Z,41.94
2019-02-17T19:12:59.831Z,41.44
2019-02-17T19:16:05.747Z,40.70
2019-02-17T19:19:11.525Z,41.08
2019-02-17T19:22:17.554Z,40.58
2019-02-17T19:25:23.354Z,40.28
2019-02-17T19:28:29.195Z,39.84
2019-02-17T19:31:35.000Z,39.60
2019-02-17T19:34:41.965Z,39.48
2019-02-17T19:37:47.976Z,39.47
2019-02-17T19:40:53.812Z,39.52
2019-02-17T19:43:59.633Z,39.82
2019-02-17T19:47:05.499Z,40.25
2019-02-17T19:50:12.211Z,41.72
2019-02-17T19:53:17.997Z,41.73
2019-02-17T19:56:26.512Z,41.93
2019-02-17T19:59:32.477Z,42.49
2019-02-17T20:02:56.351Z,42.69
2019-02-17T20:06:03.473Z,42.90
2019-02-17T20:09:18.596Z,43.33
2019-02-17T20:12:24.596Z,43.39
2019-02-17T20:15:34.048Z,43.94
2019-02-17T20:18:40.853Z,44.04
2019-02-17T20:21:46.676Z,44.97
2019-02-17T20:24:52.559Z,44.44
2019-02-17T20:27:58.375Z,44.23
2019-02-17T20:31:06.734Z,44.22
2019-02-17T20:34:14.656Z,44.21
2019-02-17T20:37:21.729Z,44.25
2019-02-17T20:40:27.564Z,44.17
2019-02-17T20:43:33.398Z,44.42
2019-02-17T20:46:39.290Z,45.44
2019-02-17T20:49:45.141Z,45.13
2019-02-17T20:52:51.041Z,45.80
2019-02-17T20:55:56.942Z,45.94
2019-02-17T20:59:02.858Z,45.77
2019-02-17T21:02:09.231Z,46.02
2019-02-17T21:05:15.205Z,45.95
2019-02-17T21:08:20.990Z,45.81
2019-02-17T21:11:26.819Z,45.47
2019-02-17T21:14:32.768Z,47.67
2019-02-17T21:17:39.910Z,47.86
2019-02-17T21:20:45.993Z,46.40
2019-02-17T21:23:51.777Z,45.98
2019-02-17T21:26:57.604Z,46.77
2019-02-17T21:30:03.776Z,46.07
2019-02-17T21:33:11.098Z,46.94
2019-02-17T21:36:23.140Z,46.87
2019-02-17T21:39:24.374Z,46.72
2019-02-17T21:42:30.163Z,46.93
2019-02-17T21:45:36.124Z,47.30
2019-02-17T21:48:42.034Z,47.09
2019-02-17T21:51:47.982Z,47.64
2019-02-17T21:54:53.734Z,47.18
2019-02-17T21:57:59.518Z,47.26
2019-02-17T22:01:05.403Z,47.04
2019-02-17T22:04:11.183Z,47.51
2019-02-17T22:07:16.939Z,47.21
2019-02-17T22:10:22.706Z,47.73
2019-02-17T22:13:28.487Z,47.01
2019-02-17T22:16:34.337Z,47.37
2019-02-17T22:19:40.124Z,47.30
2019-02-17T22:22:46.009Z,46.95
2019-02-17T22:25:51.852Z,47.04
2019-02-17T22:28:57.636Z,47.11
2019-02-17T22:32:03.462Z,47.25
2019-02-17T22:35:09.580Z,46.55
2019-02-17T22:38:15.390Z,46.52
2019-02-17T22:41:21.385Z,46.77
2019-02-17T22:44:27.152Z,46.49
2019-02-17T22:47:32.987Z,46.51
2019-02-17T22:50:38.789Z,47.10
2019-02-17T22:53:44.595Z,46.79
2019-02-17T22:56:50.366Z,46.94
2019-02-17T22:59:56.192Z,46.67
2019-02-17T23:03:01.970Z,47.11
2019-02-17T23:06:07.947Z,47.68
2019-02-17T23:09:14.111Z,48.23
2019-02-17T23:12:20.475Z,48.72
2019-02-17T23:15:26.245Z,48.59
2019-02-17T23:18:32.143Z,48.22
2019-02-17T23:21:37.924Z,47.93
2019-02-17T23:24:43.814Z,49.52
2019-02-17T23:27:49.729Z,49.07
2019-02-17T23:30:55.511Z,49.75
2019-02-17T23:34:01.276Z,49.26
2019-02-17T23:37:07.057Z,49.31
2019-02-17T23:40:13.145Z,49.86
2019-02-17T23:43:19.996Z,48.59
2019-02-17T23:46:25.777Z,48.21
2019-02-17T23:49:32.566Z,49.58
2019-02-17T23:52:38.357Z,50.01
2019-02-17T23:55:44.127Z,49.51
2019-02-17T23:58:49.922Z,49.69
